Flight Track Log - Related Links

Times and Time Zones

All times are in EDT time to prevent confusion due to time zone crossing. See the DAL470 flight status page for this flight to view local times or setup timezone preferences in your user account.

Time Position Orientation Groundspeed Altitude Reporting Facility
EDT Latitude Longitude Course Direction KTS MPH feet Rate Location/Type
Thu 05:55:39 PM 40.6103 -73.7958 79° East 151 174 1,500  Level Boston Center
Thu 05:56:29 PM 40.5667 -73.8000 184° South 212 244 2,400 1,129 Climbing New York TRACON
Thu 05:58:00 PM 40.5574 -73.1313 97° East  Level FlightAware Approximate
Thu 05:58:45 PM 40.4975 -73.6111 116° Southeast 272 313 5,000  Level Boston Center
Thu 05:59:00 PM 40.5656 -72.9687 57° Northeast  Level FlightAware Approximate
Thu 05:59:46 PM 40.4772 -73.5139 105° East 293 337 5,000  Level Boston Center
Thu 06:00:00 PM 40.6059 -72.8085 79° East  Level FlightAware Approximate
Thu 06:00:46 PM 40.4950 -73.4133 77° East 287 330 7,000  Level Boston Center
Thu 06:01:48 PM 40.5128 -73.3022 78° East 307 353 9,000 1,728 Climbing Boston Center
Thu 06:02:51 PM 40.5317 -73.1861 78° East 325 374 10,600 1,210 Climbing Boston Center
Thu 06:03:52 PM 40.5522 -73.0522 79° East 372 428 11,500 1,525 Climbing Boston Center
Thu 06:04:53 PM 40.5917 -72.8814 73° East 409 471 13,700 1,869 Climbing Boston Center
Thu 06:05:54 PM 40.6294 -72.7389 71° East 412 474 15,300 1,645 Climbing Boston Center
Thu 06:06:57 PM 40.6667 -72.5911 72° East 426 490 17,100 1,452 Climbing Boston Center
Thu 06:07:58 PM 40.7044 -72.4400 72° East 439 505 18,300 1,488 Climbing Boston Center
Thu 06:08:58 PM 40.7500 -72.2614 71° East 444 511 20,100 1,355 Climbing Boston Center
Thu 06:10:02 PM 40.7842 -72.1239 72° East 447 514 21,100 1,015 Climbing Boston Center
Thu 06:15:46 PM 41.0905 -71.1534 56° Northeast 493 567 27,000 1,037 Climbing FlightAware ADS-B (KASH)
Thu 06:16:24 PM 41.1391 -71.0614 56° Northeast 495 570 27,700 973 Climbing FlightAware ADS-B (KASH)
Thu 06:17:00 PM 41.1894 -70.9664 55° Northeast 501 577 28,200 727 Climbing FlightAware ADS-B (KASH)
Thu 06:17:30 PM 41.2294 -70.8904 55° Northeast 504 580 28,500 660 Climbing FlightAware ADS-B (KASH)
Thu 06:18:40 PM 41.3187 -70.7205 55° Northeast 510 587 29,300 646 Climbing FlightAware ADS-B (ESTA / AGH)
Thu 06:19:40 PM 41.4038 -70.5575 55° Northeast 515 593 29,900 619 Climbing FlightAware ADS-B (ESTA / AGH)
Thu 06:20:17 PM 41.4497 -70.4692 55° Northeast 519 597 30,300 593 Climbing FlightAware ADS-B (KOWD)
Thu 06:21:01 PM 41.5110 -70.3510 56° Northeast 521 600 30,700 649 Climbing FlightAware ADS-B (KOWD)
Thu 06:21:31 PM 41.5516 -70.2725 56° Northeast 521 600 31,100 857 Climbing FlightAware ADS-B (KOWD)
Thu 06:22:11 PM 41.6026 -70.1734 56° Northeast 518 596 31,700 771 Climbing FlightAware ADS-B (KOWD)
Thu 06:22:41 PM 41.6486 -70.0836 56° Northeast 518 596 32,000 476 Climbing FlightAware ADS-B (ESTA / AGH)
Thu 06:23:14 PM 41.6950 -69.9930 56° Northeast 519 597 32,200 656 Climbing FlightAware ADS-B (KASH)
Thu 06:23:45 PM 41.7285 -69.9272 56° Northeast 518 596 32,700 822 Climbing FlightAware ADS-B (KOWD)
Thu 06:24:27 PM 41.7714 -69.8428 56° Northeast 517 595 33,200 867 Climbing FlightAware ADS-B (EPKK / KRK)
Thu 06:25:15 PM 41.8568 -69.6744 57° Northeast 505 581 34,000 835 Climbing FlightAware ADS-B (KASH)
Thu 06:25:46 PM 41.8986 -69.5916 57° Northeast 506 582 34,300 545 Climbing FlightAware ADS-B (KASH)
Thu 06:25:59 PM 41.9158 -69.5574 57° Northeast 506 582 34,400 327 Climbing FlightAware ADS-B (KASH)
Thu 06:26:41 PM 41.9709 -69.4480 56° Northeast 513 590 34,600 295 Climbing FlightAware ADS-B (KASH)
Thu 06:27:00 PM 41.9962 -69.3976 57° Northeast 510 587 34,700 480 Climbing FlightAware ADS-B (KASH)
Thu 06:27:31 PM 42.0370 -69.3157 57° Northeast 508 585 35,000 295 Climbing FlightAware ADS-B (KASH)
Thu 06:28:01 PM 42.0682 -69.2530 56° Northeast 508 585 35,000  Level FlightAware ADS-B (EGUN / MHZ)
Thu 06:28:37 PM 42.1182 -69.1526 56° Northeast 507 583 35,000  Level FlightAware ADS-B (EPKK / KRK)
Thu 06:29:09 PM 42.1654 -69.0575 56° Northeast 508 585 35,000  Level FlightAware ADS-B (EPKK / KRK)
Thu 06:29:40 PM 42.2018 -68.9839 56° Northeast 506 582 35,000  Level FlightAware ADS-B (EPKK / KRK)
Thu 06:29:57 PM 42.2263 -68.9343 57° Northeast 503 579 35,000  Level FlightAware ADS-B (KASH)
Thu 06:30:30 PM 42.2688 -68.8480 57° Northeast 506 582 35,000  Level FlightAware ADS-B (EPKK / KRK)
Thu 06:31:02 PM 42.3109 -68.7623 57° Northeast 505 581 35,000  Level FlightAware ADS-B (EPKK / KRK)
Thu 06:31:32 PM 42.3390 -68.7049 57° Northeast 504 580 35,000  Level FlightAware ADS-B (EGUN / MHZ)
Thu 06:32:06 PM 42.3917 -68.5970 57° Northeast 503 579 35,000  Level FlightAware ADS-B (EPKK / KRK)
Thu 06:32:43 PM 42.4404 -68.4969 57° Northeast 502 578 35,000  Level FlightAware ADS-B (EGUN / MHZ)
Thu 06:33:17 PM 42.4841 -68.4068 57° Northeast 501 577 35,000  Level FlightAware ADS-B (EGUN / MHZ)
Thu 06:33:58 PM 42.5364 -68.2989 57° Northeast 502 578 35,000  Level FlightAware ADS-B (KASH)
Thu 06:34:28 PM 42.5689 -68.2314 57° Northeast 502 578 35,000  Level FlightAware ADS-B (EGUN / MHZ)
Thu 06:35:03 PM 42.6100 -68.1460 57° Northeast 501 577 35,000  Level FlightAware ADS-B (EGUN / MHZ)
Thu 06:35:38 PM 42.6620 -68.0375 57° Northeast 500 575 35,000  Level FlightAware ADS-B (EGUN / MHZ)
Thu 06:36:16 PM 42.7064 -67.9444 57° Northeast 500 575 35,000  Level FlightAware ADS-B (EGUN / MHZ)
Thu 06:36:48 PM 42.7499 -67.8531 57° Northeast 502 578 35,000  Level FlightAware ADS-B (EGUN / MHZ)
Thu 06:37:22 PM 42.7937 -67.7609 57° Northeast 504 580 35,000  Level FlightAware ADS-B (EGUN / MHZ)
Thu 06:37:53 PM 42.8282 -67.6881 57° Northeast 506 582 35,000  Level FlightAware ADS-B (EGUN / MHZ)
Thu 06:38:34 PM 42.8832 -67.5714 57° Northeast 507 583 35,000  Level FlightAware ADS-B (EGUN / MHZ)
Thu 06:39:07 PM 42.9263 -67.4799 57° Northeast 507 583 35,000  Level FlightAware ADS-B (EGUN / MHZ)
Thu 06:39:45 PM 42.9744 -67.3772 58° Northeast 503 579 35,000  Level FlightAware ADS-B (EGUN / MHZ)
Thu 06:40:18 PM 43.0150 -67.2900 58° Northeast 502 578 35,000  Level FlightAware ADS-B (EGUN / MHZ)
Thu 06:40:57 PM 43.0641 -67.1847 58° Northeast 501 577 35,000  Level FlightAware ADS-B (EGUN / MHZ)
Thu 06:41:43 PM 43.1215 -67.0612 58° Northeast 507 583 35,000  Level FlightAware ADS-B (EGUN / MHZ)
Thu 06:42:22 PM 43.1706 -66.9549 58° Northeast 507 583 35,000  Level FlightAware ADS-B (EGUN / MHZ)
Thu 06:42:55 PM 43.2014 -66.8892 57° Northeast 509 586 35,000  Level FlightAware ADS-B (EGUN / MHZ)
Thu 06:43:35 PM 43.2619 -66.7599 58° Northeast 512 589 35,000  Level FlightAware ADS-B (EGUN / MHZ)
Thu 06:44:13 PM 43.3102 -66.6562 58° Northeast 511 588 35,000  Level FlightAware ADS-B (EGUN / MHZ)
Thu 06:44:54 PM 43.3582 -66.5528 58° Northeast 514 592 35,000  Level FlightAware ADS-B (EGUN / MHZ)
Thu 06:45:25 PM 43.4029 -66.4560 58° Northeast 516 594 35,000  Level FlightAware ADS-B (EGUN / MHZ)
Thu 06:45:56 PM 43.4433 -66.3680 58° Northeast 516 594 35,000  Level FlightAware ADS-B (EGUN / MHZ)
Thu 06:46:40 PM 43.4956 -66.2537 58° Northeast 514 592 35,000  Level FlightAware ADS-B (EGUN / MHZ)
Thu 06:47:19 PM 43.5473 -66.1406 58° Northeast 512 589 35,000  Level FlightAware ADS-B (EGUN / MHZ)
Thu 06:47:51 PM 43.5876 -66.0518 58° Northeast 508 585 35,000  Level FlightAware ADS-B (EGUN / MHZ)
Thu 06:48:23 PM 43.6268 -65.9652 58° Northeast 496 571 35,000  Level FlightAware ADS-B (EGUN / MHZ)
Thu 06:49:05 PM 43.6761 -65.8563 58° Northeast 491 565 35,000  Level FlightAware ADS-B (EGUN / MHZ)
Thu 06:49:36 PM 43.7125 -65.7755 58° Northeast 492 566 35,000  Level FlightAware ADS-B (EGUN / MHZ)
Thu 06:50:17 PM 43.7598 -65.6708 58° Northeast 493 567 35,000  Level FlightAware ADS-B (EGUN / MHZ)
Thu 06:50:58 PM 43.8133 -65.5514 58° Northeast 493 567 35,000  Level FlightAware ADS-B (EGUN / MHZ)
Thu 06:51:28 PM 43.8490 -65.4717 59° Northeast 495 570 35,000  Level FlightAware ADS-B (EGUN / MHZ)
Thu 06:51:58 PM 43.8839 -65.3930 59° Northeast 496 571 35,000  Level FlightAware ADS-B (EGUN / MHZ)
Thu 06:52:37 PM 43.9316 -65.2850 59° Northeast 497 572 35,000  Level FlightAware ADS-B (EGUN / MHZ)
Thu 06:53:15 PM 43.9726 -65.1921 59° Northeast 497 572 35,000  Level FlightAware ADS-B (EGUN / MHZ)
Thu 06:53:54 PM 44.0218 -65.0803 59° Northeast 496 571 35,000  Level FlightAware ADS-B (EGUN / MHZ)
Thu 06:54:24 PM 44.0606 -64.9919 59° Northeast 496 571 35,000  Level FlightAware ADS-B (EGUN / MHZ)
Thu 06:54:57 PM 44.0960 -64.9112 59° Northeast 497 572 35,000  Level FlightAware ADS-B (EGUN / MHZ)
Thu 06:55:27 PM 44.1345 -64.8234 59° Northeast 498 573 35,000  Level FlightAware ADS-B (EGUN / MHZ)
Thu 06:56:08 PM 44.1847 -64.7075 59° Northeast 500 575 35,000  Level FlightAware ADS-B (EGUN / MHZ)
Thu 06:56:41 PM 44.2232 -64.6188 59° Northeast 502 578 35,000  Level FlightAware ADS-B (EGUN / MHZ)
Thu 06:57:11 PM 44.2592 -64.5353 59° Northeast 502 578 35,000  Level FlightAware ADS-B (EGUN / MHZ)
Thu 06:58:05 PM 44.3234 -64.3857 59° Northeast 500 575 35,000  Level FlightAware ADS-B (EGUN / MHZ)
Thu 06:58:44 PM 44.3706 -64.2754 59° Northeast 500 575 35,000  Level FlightAware ADS-B (EGUN / MHZ)
Thu 06:59:14 PM 44.4031 -64.1991 59° Northeast 500 575 35,000  Level FlightAware ADS-B (EGUN / MHZ)
Thu 06:59:47 PM 44.4449 -64.1011 59° Northeast 502 578 35,000  Level FlightAware ADS-B (EGUN / MHZ)
Thu 07:00:27 PM 44.4925 -63.9887 59° Northeast 504 580 35,000  Level FlightAware ADS-B (EGUN / MHZ)
Thu 07:01:05 PM 44.5380 -63.8809 60° Northeast 507 583 35,000  Level FlightAware ADS-B (EGUN / MHZ)
Thu 07:01:36 PM 44.5741 -63.7951 60° Northeast 511 588 35,000  Level FlightAware ADS-B (EGUN / MHZ)
Thu 07:02:06 PM 44.6103 -63.7091 59° Northeast 513 590 35,000  Level FlightAware ADS-B (EGUN / MHZ)
Thu 07:02:37 PM 44.6481 -63.6187 60° Northeast 513 590 35,000  Level FlightAware ADS-B (EGUN / MHZ)
Thu 07:03:09 PM 44.6822 -63.5368 60° Northeast 513 590 35,000  Level FlightAware ADS-B (EGUN / MHZ)
Thu 07:03:57 PM 44.7432 -63.3896 60° Northeast 511 588 35,000  Level FlightAware ADS-B (EGUN / MHZ)
Thu 07:04:38 PM 44.7866 -63.2847 60° Northeast 511 588 35,000  Level FlightAware ADS-B (EGUN / MHZ)
Thu 07:05:21 PM 44.8370 -63.1620 60° Northeast 511 588 35,000  Level FlightAware ADS-B (EGUN / MHZ)
Thu 07:05:52 PM 44.8786 -63.0605 60° Northeast 512 589 35,000  Level FlightAware ADS-B (EGUN / MHZ)
Thu 07:06:34 PM 44.9216 -62.9552 60° Northeast 510 587 35,000  Level FlightAware ADS-B (EGUN / MHZ)
Thu 07:07:04 PM 44.9633 -62.8528 60° Northeast 508 585 35,000  Level FlightAware ADS-B (EGUN / MHZ)
Thu 07:07:35 PM 44.9983 -62.7666 60° Northeast 507 583 35,000  Level FlightAware ADS-B (EGUN / MHZ)
Thu 07:08:17 PM 45.0333 -62.6500 60° Northeast 510 587 35,000  Level Gander Center
Thu 07:08:47 PM 45.0667 -62.5500 65° Northeast 500 575 35,000  Level Moncton Center
Thu 07:09:47 PM 45.1333 -62.3833 60° Northeast 510 587 35,000  Level Moncton Center
Thu 07:10:47 PM 45.2000 -62.1833 65° Northeast 510 587 35,000  Level Moncton Center
Thu 07:11:47 PM 45.2833 -62.0167 55° Northeast 510 587 35,000  Level Moncton Center
Thu 07:12:47 PM 45.3500 -61.8500 60° Northeast 510 587 35,000  Level Moncton Center
Thu 07:13:47 PM 45.4000 -61.6500 70° East 510 587 35,000  Level Moncton Center
Thu 07:14:47 PM 45.4667 -61.4833 60° Northeast 510 587 35,000  Level Moncton Center
Thu 07:15:47 PM 45.5500 -61.3167 54° Northeast 500 575 35,000  Level Moncton Center
Thu 07:16:47 PM 45.6167 -61.1500 60° Northeast 510 587 35,000  Level Moncton Center
Thu 07:17:47 PM 45.6667 -60.9667 69° East 510 587 35,000  Level Moncton Center
Thu 07:18:47 PM 45.7500 -60.7833 57° Northeast 510 587 35,000  Level Moncton Center
Thu 07:19:47 PM 45.8167 -60.6000 62° Northeast 510 587 35,000  Level Moncton Center
Thu 07:20:47 PM 45.8833 -60.4333 60° Northeast 510 587 35,000  Level Moncton Center
Thu 07:21:47 PM 45.9500 -60.2500 62° Northeast 500 575 35,000  Level Moncton Center
Thu 07:22:47 PM 46.0167 -60.0833 60° Northeast 500 575 35,000 -50 Level Moncton Center
Thu 07:23:47 PM 46.0667 -59.9167 67° East 500 575 34,900 50 Descending Moncton Center
Thu 07:24:47 PM 46.1500 -59.7167 59° Northeast 510 587 35,100 50 Climbing Moncton Center
Thu 07:25:47 PM 46.2000 -59.5333 68° East 510 587 35,000 -50 Descending Moncton Center
Thu 07:26:47 PM 46.2833 -59.3333 59° Northeast 520 598 35,000 50 Level Moncton Center
Thu 07:27:47 PM 46.3333 -59.1667 66° East 510 587 35,100  Climbing Moncton Center
Thu 07:28:17 PM 46.3667 -59.0833 60° Northeast 500 575 35,000 -100 Descending Gander Center
Thu 07:28:47 PM 46.4167 -58.9833 54° Northeast 510 587 35,000  Level Moncton Center
Thu 07:29:47 PM 46.4667 -58.8000 68° East 520 598 35,000  Level Moncton Center
Thu 07:30:47 PM 46.5333 -58.6000 64° Northeast 520 598 35,000 100 Level Moncton Center
Thu 07:31:47 PM 46.6000 -58.4333 60° Northeast 520 598 35,200 500 Climbing Moncton Center
Thu 07:32:47 PM 46.6667 -58.2167 66° East 510 587 36,000 400 Climbing Moncton Center
Thu 07:33:47 PM 46.7333 -58.0500 60° Northeast 510 587 36,000  Level Moncton Center
Thu 07:34:47 PM 46.7833 -57.8667 68° East 510 587 36,000  Level Moncton Center
Thu 07:35:47 PM 46.8500 -57.6833 62° Northeast 510 587 36,000  Level Moncton Center
Thu 07:36:47 PM 46.9167 -57.4833 64° Northeast 510 587 36,000  Level Moncton Center
Thu 07:37:47 PM 46.9833 -57.3000 62° Northeast 520 598 36,000  Level Moncton Center
Thu 07:38:47 PM 47.0333 -57.1000 70° East 520 598 36,000  Level Moncton Center
Thu 07:39:47 PM 47.1000 -56.9167 62° Northeast 520 598 36,000  Level Moncton Center
Thu 07:40:17 PM 47.1167 -56.8167 76° East 520 598 36,000  Level Gander Center
Thu 07:41:17 PM 47.1833 -56.6167 64° Northeast 520 598 36,000  Level Gander Center
Thu 07:41:47 PM 47.2167 -56.5333 59° Northeast 510 587 36,000  Level Moncton Center
Thu 07:42:47 PM 47.2833 -56.3500 62° Northeast 520 598 36,000  Level Moncton Center
Thu 07:43:47 PM 47.3333 -56.1333 71° East 520 598 36,000  Level Moncton Center
Thu 07:44:17 PM 47.3667 -56.0333 64° Northeast 530 610 36,000  Level Gander Center
Thu 07:44:47 PM 47.4000 -55.9333 64° Northeast 520 598 36,000  Level Moncton Center
Thu 07:45:47 PM 47.4500 -55.7167 71° East 520 598 36,000  Level Moncton Center
Thu 07:46:47 PM 47.5000 -55.5333 68° East 520 598 36,000  Level Moncton Center
Thu 07:47:47 PM 47.5667 -55.3500 62° Northeast 520 598 36,000  Level Moncton Center
Thu 07:48:47 PM 47.6333 -55.1667 62° Northeast 510 587 36,000  Level Moncton Center
Thu 07:49:47 PM 47.6833 -54.9667 70° East 510 587 36,000  Level Moncton Center
Thu 07:50:17 PM 47.7167 -54.8667 64° Northeast 510 587 36,000  Level Gander Center
Thu 07:51:17 PM 47.7667 -54.6667 70° East 510 587 36,000  Level Gander Center
Thu 07:51:47 PM 47.8000 -54.5667 64° Northeast 510 587 36,000 133 Level Moncton Center
Thu 07:52:47 PM 47.8500 -54.3833 68° East 510 587 36,200 267 Climbing Moncton Center
Thu 07:53:17 PM 47.8833 -54.2833 64° Northeast 520 598 36,400 400 Climbing Gander Center
Thu 07:54:17 PM 47.9333 -54.0667 71° East 520 598 36,800 300 Climbing Gander Center
Thu 07:55:17 PM 47.9833 -53.8667 69° East 520 598 37,000 100 Climbing Gander Center
Thu 07:56:17 PM 48.0333 -53.6833 68° East 520 598 37,000  Level Gander Center
Thu 07:57:17 PM 48.1000 -53.5000 61° Northeast 520 598 37,000  Level Gander Center
Thu 07:58:17 PM 48.1500 -53.2833 71° East 510 587 37,000  Level Gander Center
Thu 07:59:17 PM 48.2000 -53.0667 71° East 520 598 37,000  Level Gander Center
Thu 08:00:17 PM 48.2500 -52.8833 68° East 520 598 37,000  Level Gander Center
Thu 08:00:47 PM 48.2833 -52.7667 67° East 520 598 37,000  Level Moncton Center
Thu 08:01:47 PM 48.3333 -52.5833 68° East 520 598 37,000  Level Moncton Center
Thu 08:02:17 PM 48.3500 -52.4667 78° East 520 598 37,000  Level Gander Center
Thu 08:02:47 PM 48.4000 -52.3667 53° Northeast 520 598 37,000  Level Moncton Center
Thu 08:03:47 PM 48.4333 -52.1500 77° East 520 598 37,000  Level Moncton Center
Thu 08:04:17 PM 48.4667 -52.0667 59° Northeast 520 598 37,000  Level Gander Center
Thu 08:05:17 PM 48.5167 -51.8500 71° East 520 598 37,000  Level Gander Center
Thu 08:05:47 PM 48.5500 -51.7500 63° Northeast 530 610 37,000  Level Moncton Center
Thu 08:06:47 PM 48.5833 -51.5500 76° East 520 598 37,000  Level Moncton Center
Thu 08:07:47 PM 48.6500 -51.3333 65° Northeast 530 610 37,000  Level Moncton Center
Thu 08:08:17 PM 48.6667 -51.2333 76° East 530 610 37,000  Level Gander Center
Thu 08:09:17 PM 48.7167 -51.0333 69° East 530 610 37,000  Level Gander Center
Thu 08:09:47 PM 48.7500 -50.9167 67° East 520 598 37,000  Level Moncton Center
Thu 08:10:47 PM 48.8000 -50.7000 71° East 530 610 37,000  Level Moncton Center
Thu 08:11:17 PM 48.8167 -50.6167 73° East 530 610 37,000  Level Gander Center
Thu 08:11:47 PM 48.8333 -50.5167 76° East 530 610 37,000  Level Moncton Center
Thu 08:12:47 PM 48.9000 -50.2833 66° East 530 610 37,000  Level Moncton Center
Thu 08:13:17 PM 48.9333 -50.1833 63° Northeast 530 610 37,000  Level Gander Center
Thu 08:14:17 PM 48.9667 -50.0000 74° East 530 610 37,000  Level Gander Center
Thu 08:15:17 PM 49.0000 -49.7667 78° East 520 598 37,000  Level Gander Center
Thu 08:16:17 PM 49.0333 -49.5667 76° East 520 598 37,000  Level Gander Center
Thu 08:17:17 PM 49.0667 -49.3333 78° East 520 598 37,000  Level Gander Center
Thu 08:18:17 PM 49.1000 -49.1167 77° East 530 610 37,000  Level Gander Center
Thu 08:19:17 PM 49.1333 -48.9000 77° East 520 598 37,000  Level Gander Center
Thu 08:20:17 PM 49.1500 -48.7000 83° East 530 610 37,000  Level Gander Center
Thu 08:21:17 PM 49.1833 -48.4833 77° East 530 610 37,000  Level Gander Center
Thu 08:22:17 PM 49.2000 -48.2333 84° East 520 598 37,000  Level Gander Center
Thu 08:23:17 PM 49.2333 -48.0333 76° East 520 598 37,000  Level Gander Center
Thu 08:24:17 PM 49.2667 -47.8167 77° East 520 598 37,000  Level Gander Center
Thu 08:25:17 PM 49.3000 -47.6000 77° East 530 610 37,000  Level Gander Center
Thu 08:26:17 PM 49.3167 -47.3833 83° East 530 610 37,000  Level Gander Center
Thu 08:27:17 PM 49.3500 -47.1333 78° East 530 610 37,000  Level Gander Center
Thu 08:28:17 PM 49.3667 -46.9500 82° East 530 610 37,000  Level Gander Center
Thu 08:30:00 PM 49.4170 -46.6101 77° East  Level FlightAware Approximate
Thu 08:37:00 PM 49.5874 -45.2099 80° East  Level FlightAware Approximate
Thu 08:38:00 PM 49.6079 -45.0084 81° East  Level FlightAware Approximate
Thu 08:39:00 PM 49.6280 -44.8067 81° East  Level FlightAware Approximate
Thu 08:40:00 PM 49.6477 -44.6049 81° East  Level FlightAware Approximate
Thu 08:41:00 PM 49.6671 -44.4029 81° East  Level FlightAware Approximate
Thu 08:42:00 PM 49.6862 -44.2007 82° East  Level FlightAware Approximate
Thu 08:43:00 PM 49.7049 -43.9984 82° East  Level FlightAware Approximate
Thu 08:44:00 PM 49.7233 -43.7960 82° East  Level FlightAware Approximate
Thu 08:45:00 PM 49.7412 -43.5934 82° East  Level FlightAware Approximate
Thu 08:46:00 PM 49.7589 -43.3906 82° East  Level FlightAware Approximate
Thu 08:47:00 PM 49.7762 -43.1877 82° East  Level FlightAware Approximate
Thu 08:48:00 PM 49.7931 -42.9846 83° East  Level FlightAware Approximate
Thu 08:49:00 PM 49.8097 -42.7814 83° East  Level FlightAware Approximate
Thu 08:50:00 PM 49.8259 -42.5781 83° East  Level FlightAware Approximate
Thu 08:51:00 PM 49.8418 -42.3746 83° East  Level FlightAware Approximate
Thu 08:52:00 PM 49.8573 -42.1711 83° East  Level FlightAware Approximate
Thu 08:53:00 PM 49.8724 -41.9673 83° East  Level FlightAware Approximate
Thu 08:54:00 PM 49.8872 -41.7635 83° East  Level FlightAware Approximate
Thu 08:55:00 PM 49.9017 -41.5595 84° East  Level FlightAware Approximate
Thu 08:56:00 PM 49.9158 -41.3554 84° East  Level FlightAware Approximate
Thu 08:57:00 PM 49.9295 -41.1512 84° East  Level FlightAware Approximate
Thu 08:58:00 PM 49.9428 -40.9468 84° East  Level FlightAware Approximate
Thu 08:59:00 PM 49.9558 -40.7424 84° East  Level FlightAware Approximate
Thu 09:00:00 PM 49.9685 -40.5379 84° East  Level FlightAware Approximate
Thu 09:01:00 PM 49.9808 -40.3332 85° East  Level FlightAware Approximate
Thu 09:02:00 PM 49.9927 -40.1289 85° East  Level FlightAware Approximate
Thu 09:03:00 PM 50.0107 -39.9260 77° East  Level FlightAware Approximate
Thu 09:04:00 PM 50.0396 -39.7257 77° East  Level FlightAware Approximate
Thu 09:05:00 PM 50.0681 -39.5251 77° East  Level FlightAware Approximate
Thu 09:06:00 PM 50.0963 -39.3243 78° East  Level FlightAware Approximate
Thu 09:07:00 PM 50.1241 -39.1233 78° East  Level FlightAware Approximate
Thu 09:08:00 PM 50.1516 -38.9220 78° East  Level FlightAware Approximate
Thu 09:09:00 PM 50.1787 -38.7205 78° East  Level FlightAware Approximate
Thu 09:10:00 PM 50.2055 -38.5187 78° East  Level FlightAware Approximate
Thu 09:11:00 PM 50.2320 -38.3168 78° East  Level FlightAware Approximate
Thu 09:12:00 PM 50.2580 -38.1146 79° East  Level FlightAware Approximate
Thu 09:13:00 PM 50.2838 -37.9122 79° East  Level FlightAware Approximate
Thu 09:14:00 PM 50.3092 -37.7096 79° East  Level FlightAware Approximate
Thu 09:15:00 PM 50.3342 -37.5067 79° East  Level FlightAware Approximate
Thu 09:16:00 PM 50.3589 -37.3037 79° East  Level FlightAware Approximate
Thu 09:17:00 PM 50.3832 -37.1004 79° East  Level FlightAware Approximate
Thu 09:18:00 PM 50.4072 -36.8969 79° East  Level FlightAware Approximate
Thu 09:19:00 PM 50.4308 -36.6933 80° East  Level FlightAware Approximate
Thu 09:20:00 PM 50.4540 -36.4894 80° East  Level FlightAware Approximate
Thu 09:21:00 PM 50.4769 -36.2853 80° East  Level FlightAware Approximate
Thu 09:22:00 PM 50.4995 -36.0811 80° East  Level FlightAware Approximate
Thu 09:23:00 PM 50.5216 -35.8766 80° East  Level FlightAware Approximate
Thu 09:24:00 PM 50.5435 -35.6719 80° East  Level FlightAware Approximate
Thu 09:25:00 PM 50.5649 -35.4671 81° East  Level FlightAware Approximate
Thu 09:26:00 PM 50.5860 -35.2621 81° East  Level FlightAware Approximate
Thu 09:27:00 PM 50.6068 -35.0569 81° East  Level FlightAware Approximate
Thu 09:28:00 PM 50.6272 -34.8515 81° East  Level FlightAware Approximate
Thu 09:29:00 PM 50.6472 -34.6459 81° East  Level FlightAware Approximate
Thu 09:30:00 PM 50.6669 -34.4402 81° East  Level FlightAware Approximate
Thu 09:31:00 PM 50.6861 -34.2343 82° East  Level FlightAware Approximate
Thu 09:32:00 PM 50.7051 -34.0282 82° East  Level FlightAware Approximate
Thu 09:33:00 PM 50.7237 -33.8219 82° East  Level FlightAware Approximate
Thu 09:34:00 PM 50.7419 -33.6155 82° East  Level FlightAware Approximate
Thu 09:35:00 PM 50.7597 -33.4090 82° East  Level FlightAware Approximate
Thu 09:36:00 PM 50.7772 -33.2023 82° East  Level FlightAware Approximate
Thu 09:37:00 PM 50.7943 -32.9954 82° East  Level FlightAware Approximate
Thu 09:38:00 PM 50.8111 -32.7884 83° East  Level FlightAware Approximate
Thu 09:39:00 PM 50.8274 -32.5812 83° East  Level FlightAware Approximate
Thu 09:40:00 PM 50.8434 -32.3739 83° East  Level FlightAware Approximate
Thu 09:41:00 PM 50.8591 -32.1664 83° East  Level FlightAware Approximate
Thu 09:42:00 PM 50.8744 -31.9588 83° East  Level FlightAware Approximate
Thu 09:43:00 PM 50.8893 -31.7511 83° East  Level FlightAware Approximate
Thu 09:44:00 PM 50.9038 -31.5432 84° East  Level FlightAware Approximate
Thu 09:45:00 PM 50.9180 -31.3353 84° East  Level FlightAware Approximate
Thu 09:46:00 PM 50.9318 -31.1266 84° East  Level FlightAware Approximate
Thu 09:47:00 PM 50.9453 -30.9179 84° East  Level FlightAware Approximate
Thu 09:48:00 PM 50.9584 -30.7090 84° East  Level FlightAware Approximate
Thu 09:49:00 PM 50.9711 -30.5000 84° East  Level FlightAware Approximate
Thu 09:50:00 PM 50.9835 -30.2910 85° East  Level FlightAware Approximate
Thu 09:51:00 PM 50.9954 -30.0817 85° East  Level FlightAware Approximate
Thu 09:52:00 PM 51.0181 -29.8752 77° East  Level FlightAware Approximate
Thu 09:53:00 PM 51.0475 -29.6702 77° East  Level FlightAware Approximate
Thu 09:54:00 PM 51.0765 -29.4649 77° East  Level FlightAware Approximate
Thu 09:55:00 PM 51.1052 -29.2594 77° East  Level FlightAware Approximate
Thu 09:56:00 PM 51.1335 -29.0536 78° East  Level FlightAware Approximate
Thu 09:57:00 PM 51.1615 -28.8476 78° East  Level FlightAware Approximate
Thu 09:58:00 PM 51.1890 -28.6413 78° East  Level FlightAware Approximate
Thu 09:59:00 PM 51.2163 -28.4348 78° East  Level FlightAware Approximate
Thu 10:00:00 PM 51.2431 -28.2281 78° East  Level FlightAware Approximate
Thu 10:01:00 PM 51.2696 -28.0211 78° East  Level FlightAware Approximate
Thu 10:02:00 PM 51.2958 -27.8138 79° East  Level FlightAware Approximate
Thu 10:03:00 PM 51.3215 -27.6063 79° East  Level FlightAware Approximate
Thu 10:04:00 PM 51.3469 -27.3986 79° East  Level FlightAware Approximate
Thu 10:05:00 PM 51.3720 -27.1907 79° East  Level FlightAware Approximate
Thu 10:06:00 PM 51.3966 -26.9826 79° East  Level FlightAware Approximate
Thu 10:07:00 PM 51.4209 -26.7742 79° East  Level FlightAware Approximate
Thu 10:08:00 PM 51.4448 -26.5656 79° East  Level FlightAware Approximate
Thu 10:09:00 PM 51.4684 -26.3568 80° East  Level FlightAware Approximate
Thu 10:10:00 PM 51.4916 -26.1477 80° East  Level FlightAware Approximate
Thu 10:11:00 PM 51.5144 -25.9385 80° East  Level FlightAware Approximate
Thu 10:12:00 PM 51.5368 -25.7290 80° East  Level FlightAware Approximate
Thu 10:13:00 PM 51.5589 -25.5194 80° East  Level FlightAware Approximate
Thu 10:14:00 PM 51.5806 -25.3095 80° East  Level FlightAware Approximate
Thu 10:15:00 PM 51.6019 -25.0995 81° East  Level FlightAware Approximate
Thu 10:16:00 PM 51.6228 -24.8892 81° East  Level FlightAware Approximate
Thu 10:17:00 PM 51.6434 -24.6788 81° East  Level FlightAware Approximate
Thu 10:18:00 PM 51.6636 -24.4681 81° East  Level FlightAware Approximate
Thu 10:19:00 PM 51.6834 -24.2573 81° East  Level FlightAware Approximate
Thu 10:20:00 PM 51.7028 -24.0463 81° East  Level FlightAware Approximate
Thu 10:21:00 PM 51.7219 -23.8351 82° East  Level FlightAware Approximate
Thu 10:22:00 PM 51.7406 -23.6238 82° East  Level FlightAware Approximate
Thu 10:23:00 PM 51.7589 -23.4122 82° East  Level FlightAware Approximate
Thu 10:24:00 PM 51.7768 -23.2005 82° East  Level FlightAware Approximate
Thu 10:25:00 PM 51.7943 -22.9887 82° East  Level FlightAware Approximate
Thu 10:26:00 PM 51.8115 -22.7766 82° East  Level FlightAware Approximate
Thu 10:27:00 PM 51.8283 -22.5644 83° East  Level FlightAware Approximate
Thu 10:28:00 PM 51.8447 -22.3521 83° East  Level FlightAware Approximate
Thu 10:29:00 PM 51.8607 -22.1396 83° East  Level FlightAware Approximate
Thu 10:30:00 PM 51.8763 -21.9270 83° East  Level FlightAware Approximate
Thu 10:31:00 PM 51.8915 -21.7142 83° East  Level FlightAware Approximate
Thu 10:32:00 PM 51.9064 -21.5012 83° East  Level FlightAware Approximate
Thu 10:33:00 PM 51.9209 -21.2882 84° East  Level FlightAware Approximate
Thu 10:34:00 PM 51.9350 -21.0749 84° East  Level FlightAware Approximate
Thu 10:35:00 PM 51.9487 -20.8616 84° East  Level FlightAware Approximate
Thu 10:36:00 PM 51.9620 -20.6481 84° East  Level FlightAware Approximate
Thu 10:37:00 PM 51.9749 -20.4345 84° East  Level FlightAware Approximate
Thu 10:38:00 PM 51.9874 -20.2208 84° East  Level FlightAware Approximate
Thu 10:39:00 PM 51.9996 -20.0070 85° East  Level FlightAware Approximate
Thu 10:40:00 PM 52.0226 -19.7954 80° East  Level FlightAware Approximate
Thu 10:41:00 PM 52.0455 -19.5837 80° East  Level FlightAware Approximate
Thu 10:42:00 PM 52.0681 -19.3718 80° East  Level FlightAware Approximate
Thu 10:43:00 PM 52.0902 -19.1597 80° East  Level FlightAware Approximate
Thu 10:44:00 PM 52.1120 -18.9474 80° East  Level FlightAware Approximate
Thu 10:45:00 PM 52.1335 -18.7349 81° East  Level FlightAware Approximate
Thu 10:46:00 PM 52.1545 -18.5222 81° East  Level FlightAware Approximate
Thu 10:47:00 PM 52.1752 -18.3092 81° East  Level FlightAware Approximate
Thu 10:48:00 PM 52.1954 -18.0961 81° East  Level FlightAware Approximate
Thu 10:49:00 PM 52.2153 -17.8828 81° East  Level FlightAware Approximate
Thu 10:50:00 PM 52.2348 -17.6693 81° East  Level FlightAware Approximate
Thu 10:51:00 PM 52.2540 -17.4556 82° East  Level FlightAware Approximate
Thu 10:52:00 PM 52.2732 -17.2418 82° East  Level FlightAware Approximate
Thu 10:53:00 PM 52.2920 -17.0279 82° East  Level FlightAware Approximate
Thu 10:54:00 PM 52.3103 -16.8138 82° East  Level FlightAware Approximate
Thu 10:55:00 PM 52.3283 -16.5994 82° East  Level FlightAware Approximate
Thu 10:56:00 PM 52.3460 -16.3850 82° East  Level FlightAware Approximate
Thu 10:57:00 PM 52.3632 -16.1703 82° East  Level FlightAware Approximate
Thu 10:58:00 PM 52.3800 -15.9555 83° East  Level FlightAware Approximate
Thu 10:59:00 PM 52.3964 -15.7405 83° East  Level FlightAware Approximate
Thu 11:00:00 PM 52.4125 -15.5254 83° East  Level FlightAware Approximate
Thu 11:01:00 PM 52.4282 -15.3101 83° East  Level FlightAware Approximate
Thu 11:02:00 PM 52.4434 -15.0946 83° East  Level FlightAware Approximate
Thu 11:03:00 PM 52.4585 -14.8791 83° East  Level FlightAware Approximate
Thu 11:04:00 PM 52.4734 -14.6634 83° East  Level FlightAware Approximate
Thu 11:05:00 PM 52.4880 -14.4476 84° East  Level FlightAware Approximate
Thu 11:06:00 PM 52.5024 -14.2317 84° East  Level FlightAware Approximate
Thu 11:07:00 PM 52.5165 -14.0157 84° East  Level FlightAware Approximate
Thu 11:08:00 PM 52.5301 -13.7995 84° East  Level FlightAware Approximate
Thu 11:08:35 PM 52.3343 -11.8069 82° East 469 540 37,000  Level FlightAware ADS-B (KABQ)
Thu 11:09:00 PM 52.5434 -13.5832 84° East  Level FlightAware Approximate
Thu 11:10:00 PM 52.5562 -13.3668 84° East  Level FlightAware Approximate
Thu 11:10:10 PM 52.3655 -11.4550 82° East 470 541 37,000  Level FlightAware ADS-B (KABQ)
Thu 11:10:42 PM 52.3753 -11.3425 82° East 469 540 37,000  Level FlightAware ADS-B (KABQ)
Thu 11:11:24 PM 52.3874 -11.2004 82° East 466 536 37,000  Level FlightAware ADS-B (KABQ)
Thu 11:11:55 PM 52.3970 -11.0883 82° East 466 536 37,000  Level FlightAware ADS-B (KABQ)
Thu 11:12:34 PM 52.4077 -10.9602 82° East 467 537 37,000  Level FlightAware ADS-B (KABQ)
Thu 11:13:11 PM 52.4193 -10.8201 83° East 466 536 37,000  Level FlightAware ADS-B (KABQ)
Thu 11:13:41 PM 52.4273 -10.7207 83° East 465 535 37,000  Level FlightAware ADS-B (KABQ)
Thu 11:14:12 PM 52.4362 -10.6104 83° East 464 534 37,000  Level FlightAware ADS-B (KABQ)
Thu 11:14:51 PM 52.4472 -10.4717 83° East 467 537 37,000  Level FlightAware ADS-B (KABQ)
Thu 11:15:31 PM 52.4580 -10.3337 83° East 469 540 37,000  Level FlightAware ADS-B (KABQ)
Thu 11:16:04 PM 52.4667 -10.2206 83° East 470 541 37,000  Level FlightAware ADS-B (KABQ)
Thu 11:16:35 PM 52.4751 -10.1095 83° East 472 543 37,000  Level FlightAware ADS-B (KABQ)
Thu 11:17:05 PM 52.4833 -9.9999 83° East 474 545 37,000  Level FlightAware ADS-B (KABQ)
Thu 11:17:38 PM 52.4915 -9.8914 83° East 474 545 37,000  Level FlightAware ADS-B (KABQ)
Thu 11:18:08 PM 52.4997 -9.7782 83° East 473 544 37,000  Level FlightAware ADS-B (KABQ)
Thu 11:18:38 PM 52.5065 -9.6843 83° East 473 544 37,000  Level FlightAware ADS-B (KABQ)
Thu 11:19:09 PM 52.5152 -9.5608 83° East 472 543 37,000  Level FlightAware ADS-B (KABQ)
Thu 11:19:39 PM 52.5229 -9.4518 84° East 473 544 37,000  Level FlightAware ADS-B (KABQ)
Thu 11:20:12 PM 52.5309 -9.3359 84° East 473 544 37,000  Level FlightAware ADS-B (KABQ)
Thu 11:20:42 PM 52.5383 -9.2280 84° East 470 541 37,000  Level FlightAware ADS-B (KABQ)
Thu 11:21:28 PM 52.5493 -9.0642 84° East 472 543 37,000  Level FlightAware ADS-B (KABQ)
Thu 11:21:59 PM 52.5560 -8.9629 84° East 473 544 37,000  Level FlightAware ADS-B
Thu 11:22:39 PM 52.5655 -8.8179 84° East 472 543 37,000  Level FlightAware ADS-B
Thu 11:23:16 PM 52.5742 -8.6809 84° East 471 542 37,000  Level FlightAware ADS-B (KABQ)
Thu 11:23:46 PM 52.5808 -8.5768 84° East 469 540 37,000  Level FlightAware ADS-B (KABQ)
Thu 11:24:19 PM 52.5881 -8.4591 84° East 466 536 37,000  Level FlightAware ADS-B
Thu 11:24:53 PM 52.5953 -8.3394 84° East 468 539 37,000  Level FlightAware UK
Thu 11:24:53 PM 52.5951 -8.3427 84° East 467 537 37,000  Level FlightAware ADS-B (KABQ)
Thu 11:25:23 PM 52.6016 -8.2338 84° East 470 541 37,000  Level FlightAware UK
Thu 11:25:26 PM 52.6017 -8.2340 85° East 469 540 37,000  Level FlightAware ADS-B (KABQ)
Thu 11:25:58 PM 52.6095 -8.1007 85° East 472 543 37,000  Level FlightAware ADS-B (EGAA / BFS)
Thu 11:26:31 PM 52.6159 -7.9900 85° East 473 544 37,000  Level FlightAware ADS-B
Thu 11:27:06 PM 52.6224 -7.8753 85° East 472 543 37,000  Level FlightAware ADS-B
Thu 11:27:37 PM 52.6288 -7.7605 85° East 471 542 37,000  Level FlightAware ADS-B (KABQ)
Thu 11:28:12 PM 52.6359 -7.6311 85° East 472 543 37,000  Level FlightAware ADS-B
Thu 11:28:53 PM 52.6439 -7.4840 85° East 472 543 37,000  Level FlightAware UK
Thu 11:28:55 PM 52.6437 -7.4855 85° East 471 542 37,000  Level FlightAware ADS-B (EGAA / BFS)
Thu 11:29:30 PM 52.6506 -7.3544 85° East 469 540 37,000  Level FlightAware ADS-B
Thu 11:30:10 PM 52.6578 -7.2137 85° East 469 540 37,000  Level FlightAware ADS-B
Thu 11:30:49 PM 52.6648 -7.0727 86° East 470 541 37,000  Level FlightAware ADS-B
Thu 11:31:23 PM 52.6710 -6.9502 86° East 472 543 37,000  Level FlightAware UK
Thu 11:31:28 PM 52.6707 -6.9504 86° East 472 543 37,000  Level FlightAware ADS-B
Thu 11:32:07 PM 52.6784 -6.7903 86° East 473 544 37,000  Level FlightAware ADS-B (EGAA / BFS)
Thu 11:32:38 PM 52.6836 -6.6781 86° East 472 543 37,000  Level FlightAware ADS-B (EGAA / BFS)
Thu 11:33:10 PM 52.6885 -6.5720 86° East 472 543 37,000  Level FlightAware ADS-B
Thu 11:33:53 PM 52.6957 -6.4117 86° East 474 545 37,000  Level FlightAware UK
Thu 11:34:23 PM 52.7004 -6.3040 86° East 474 545 37,000  Level FlightAware UK
Thu 11:34:40 PM 52.7027 -6.2469 86° East 473 544 37,000  Level FlightAware ADS-B
Thu 11:35:19 PM 52.7085 -6.1059 86° East 473 544 37,000  Level FlightAware ADS-B
Thu 11:35:49 PM 52.7132 -5.9919 86° East 472 543 37,000  Level FlightAware ADS-B (EGAA / BFS)
Thu 11:36:19 PM 52.7172 -5.8917 86° East 472 543 37,000  Level FlightAware ADS-B
Thu 11:36:53 PM 52.7221 -5.7627 86° East 472 543 37,000  Level FlightAware ADS-B (EGAA / BFS)
Thu 11:37:26 PM 52.7265 -5.6495 88° East 471 542 37,000  Level FlightAware ADS-B
Thu 11:37:57 PM 52.7308 -5.5316 87° East 474 545 37,000  Level FlightAware ADS-B (EGAA / BFS)
Thu 11:38:38 PM 52.7344 -5.4308 87° East 475 547 37,000  Level FlightAware ADS-B
Thu 11:39:04 PM 52.7390 -5.2972 88° East 474 545 37,000  Level FlightAware ADS-B
Thu 11:39:24 PM 52.7415 -5.2230 88° East 474 545 37,000  Level FlightAware ADS-B
Thu 11:39:54 PM 52.7450 -5.1182 87° East 475 547 37,000  Level FlightAware ADS-B (EGCW)
Thu 11:40:02 PM 52.7460 -5.0888 88° East 474 545 37,000  Level FlightAware ADS-B
Thu 11:40:22 PM 52.7483 -5.0146 88° East 473 544 37,000  Level FlightAware ADS-B
Thu 11:40:45 PM 52.7510 -4.9316 88° East 472 543 37,000  Level FlightAware ADS-B
Thu 11:40:59 PM 52.7525 -4.8833 88° East 470 541 37,000  Level FlightAware ADS-B
Thu 11:41:09 PM 52.7537 -4.8463 88° East 470 541 37,000  Level FlightAware ADS-B
Thu 11:41:44 PM 52.7573 -4.7240 87° East 472 543 37,000  Level FlightAware ADS-B (EGCW)
Thu 11:42:11 PM 52.7601 -4.6259 87° East 474 545 37,000  Level FlightAware ADS-B
Thu 11:42:14 PM 52.7603 -4.6180 87° East 474 545 37,000  Level FlightAware ADS-B (EGCW)
Thu 11:42:41 PM 52.7631 -4.5177 87° East 472 543 37,000  Level FlightAware ADS-B
Thu 11:42:44 PM 52.7634 -4.5087 88° East 473 544 37,000  Level FlightAware ADS-B (EGCW)
Thu 11:43:18 PM 52.7666 -4.3890 88° East 472 543 37,000  Level FlightAware ADS-B
Thu 11:43:22 PM 52.7672 -4.3704 88° East 472 543 37,000  Level FlightAware ADS-B
Thu 11:43:48 PM 52.7697 -4.2748 88° East 471 542 37,000  Level FlightAware ADS-B (LERS / REU)
Thu 11:43:52 PM 52.7700 -4.2608 88° East 471 542 37,000  Level FlightAware ADS-B
Thu 11:44:18 PM 52.7719 -4.1843 88° East 473 544 37,000  Level FlightAware ADS-B
Thu 11:44:26 PM 52.7730 -4.1412 88° East 473 544 37,000  Level FlightAware ADS-B
Thu 11:44:50 PM 52.7751 -4.0556 88° East 474 545 37,000  Level FlightAware ADS-B (EGCW)
Thu 11:44:58 PM 52.7759 -4.0229 88° East 475 547 37,000  Level FlightAware ADS-B
Thu 11:45:22 PM 52.7778 -3.9408 88° East 476 548 37,000  Level FlightAware ADS-B (EGXU / HRT)
Thu 11:45:31 PM 52.7785 -3.9059 88° East 476 548 37,000  Level FlightAware ADS-B
Thu 11:45:52 PM 52.7802 -3.8285 88° East 476 548 37,000  Level FlightAware ADS-B (EGXU / HRT)
Thu 11:46:01 PM 52.7810 -3.7946 88° East 476 548 37,000  Level FlightAware ADS-B
Thu 11:46:06 PM 52.7812 -3.7782 90° East 476 548 37,000  Level FlightAware ADS-B (LERS / REU)
Thu 11:46:33 PM 52.7813 -3.6816 91° East 473 544 37,000  Level FlightAware ADS-B
Thu 11:46:39 PM 52.7812 -3.6651 91° East 472 543 37,000  Level FlightAware ADS-B (EGLF / FAB)
Thu 11:47:03 PM 52.7806 -3.5736 91° East 471 542 37,000  Level FlightAware ADS-B
Thu 11:47:14 PM 52.7803 -3.5345 91° East 470 541 37,000  Level FlightAware ADS-B (LERS / REU)
Thu 11:47:33 PM 52.7800 -3.4647 90° East 469 540 37,000  Level FlightAware ADS-B
Thu 11:47:46 PM 52.7799 -3.4196 90° East 469 540 37,000  Level FlightAware ADS-B
Thu 11:48:03 PM 52.7796 -3.3566 90° East 470 541 37,000  Level FlightAware ADS-B
Thu 11:48:18 PM 52.7795 -3.3061 90° East 471 542 37,000  Level FlightAware ADS-B
Thu 11:48:34 PM 52.7792 -3.2486 90° East 471 542 37,000  Level FlightAware ADS-B
Thu 11:48:50 PM 52.7789 -3.1901 90° East 471 542 37,000  Level FlightAware ADS-B (EGLF / FAB)
Thu 11:49:05 PM 52.7787 -3.1369 90° East 470 541 37,000  Level FlightAware ADS-B
Thu 11:49:20 PM 52.7784 -3.0835 91° East 468 539 37,000  Level FlightAware ADS-B (EGLF / FAB)
Thu 11:49:35 PM 52.7780 -3.0275 91° East 467 537 37,000  Level FlightAware ADS-B
Thu 11:49:41 PM 52.7780 -3.0146 90° East 615 708 37,000  Level FlightAware ADS-B
Thu 11:49:47 PM 52.7778 -2.9876 91° East 466 536 37,000  Level FlightAware ADS-B (LERS / REU)
Thu 11:50:07 PM 52.7773 -2.9250 91° East 465 535 37,000  Level FlightAware ADS-B
Thu 11:50:18 PM 52.7769 -2.8826 91° East 465 535 37,000  Level FlightAware ADS-B (EGDX / DGX)
Thu 11:50:40 PM 52.7764 -2.8115 91° East 464 534 37,000  Level FlightAware ADS-B
Thu 11:50:49 PM 52.7760 -2.7678 91° East 464 534 37,000  Level FlightAware ADS-B (EGCC / MAN)
Thu 11:50:57 PM 52.7757 -2.7376 90° East 464 534 37,000  Level FlightAware ADS-B (LERS / REU)
Thu 11:51:10 PM 52.7753 -2.6924 91° East 463 533 37,000  Level FlightAware ADS-B
Thu 11:51:13 PM 52.7752 -2.6833 90° East 463 533 37,000  Level FlightAware ADS-B
Thu 11:51:24 PM 52.7748 -2.6429 90° East 462 532 37,000  Level FlightAware ADS-B
Thu 11:51:29 PM 52.7746 -2.6256 90° East 462 532 37,000  Level FlightAware ADS-B
Thu 11:51:34 PM 52.7745 -2.6068 90° East 463 533 37,000  Level FlightAware ADS-B
Thu 11:51:40 PM 52.7743 -2.5850 91° East 463 533 37,000  Level FlightAware ADS-B
Thu 11:51:49 PM 52.7739 -2.5532 91° East 462 532 37,000  Level FlightAware ADS-B (EGLF / FAB)
Thu 11:51:53 PM 52.7738 -2.5410 90° East 462 532 37,000  Level FlightAware ADS-B
Thu 11:52:04 PM 52.7734 -2.5053 90° East 462 532 37,000  Level FlightAware ADS-B
Thu 11:52:11 PM 52.7731 -2.4789 91° East 462 532 37,000  Level FlightAware ADS-B
Thu 11:52:15 PM 52.7729 -2.4632 90° East 462 532 37,000  Level FlightAware ADS-B
Thu 11:52:25 PM 52.7725 -2.4298 90° East 462 532 37,000  Level FlightAware ADS-B (LERS / REU)
Thu 11:52:35 PM 52.7721 -2.3921 90° East 461 531 37,000  Level FlightAware ADS-B
Thu 11:52:41 PM 52.7719 -2.3727 91° East 461 531 37,000  Level FlightAware ADS-B
Thu 11:52:45 PM 52.7717 -2.3611 91° East 461 531 37,000  Level FlightAware ADS-B (EGCW)
Thu 11:52:48 PM 52.7715 -2.3469 90° East 461 531 37,000  Level FlightAware ADS-B (LERS / REU)
Thu 11:53:02 PM 52.7710 -2.2985 90° East 462 532 37,000  Level FlightAware ADS-B
Thu 11:53:11 PM 52.7706 -2.2668 91° East 463 533 37,000  Level FlightAware ADS-B
Thu 11:53:16 PM 52.7704 -2.2477 90° East 463 533 37,000  Level FlightAware ADS-B
Thu 11:53:24 PM 52.7700 -2.2243 90° East 464 534 37,000  Level FlightAware ADS-B
Thu 11:53:41 PM 52.7692 -2.1603 91° East 465 535 37,000  Level FlightAware ADS-B
Thu 11:53:42 PM 52.7693 -2.1699 91° East 465 535 37,000  Level FlightAware ADS-B
Thu 11:53:48 PM 52.7689 -2.1367 90° East 465 535 37,000  Level FlightAware ADS-B
Thu 11:53:55 PM 52.7685 -2.1120 90° East 465 535 37,000  Level FlightAware ADS-B (LERS / REU)
Thu 11:54:12 PM 52.7676 -2.0525 91° East 466 536 37,000  Level FlightAware ADS-B
Thu 11:54:16 PM 52.7674 -2.0376 91° East 466 536 37,000  Level FlightAware ADS-B
Thu 11:54:21 PM 52.7671 -2.0174 90° East 467 537 37,000  Level FlightAware ADS-B (LERS / REU)
Thu 11:54:42 PM 52.7660 -1.9450 91° East 467 537 37,000  Level FlightAware ADS-B
Thu 11:54:53 PM 52.7654 -1.9047 91° East 468 539 37,000  Level FlightAware ADS-B (EGCW)
Thu 11:55:01 PM 52.7649 -1.8775 91° East 468 539 37,000  Level FlightAware ADS-B
Thu 11:55:12 PM 52.7644 -1.8375 91° East 468 539 37,000  Level FlightAware ADS-B
Thu 11:55:14 PM 52.7642 -1.8301 91° East 469 540 37,000  Level FlightAware ADS-B
Thu 11:55:25 PM 52.7636 -1.7896 92° East 469 540 37,000  Level FlightAware ADS-B (EGCC / MAN)
Thu 11:55:40 PM 52.7627 -1.7390 91° East 469 540 37,000  Level FlightAware ADS-B (LERS / REU)
Thu 11:55:42 PM 52.7625 -1.7290 91° East 470 541 37,000  Level FlightAware ADS-B
Thu 11:56:01 PM 52.7614 -1.6619 91° East 470 541 37,000  Level FlightAware ADS-B
Thu 11:56:12 PM 52.7607 -1.6214 92° East 471 542 37,000  Level FlightAware ADS-B
Thu 11:56:13 PM 52.7606 -1.6185 91° East 471 542 37,000  Level FlightAware ADS-B (LERS / REU)
Thu 11:56:42 PM 52.7585 -1.5138 92° East 470 541 37,000  Level FlightAware ADS-B
Thu 11:56:46 PM 52.7583 -1.5004 92° East 470 541 37,000  Level FlightAware ADS-B (EGCW)
Thu 11:57:13 PM 52.7564 -1.4062 92° East 469 540 37,000  Level FlightAware ADS-B
Thu 11:57:16 PM 52.7563 -1.3984 92° East 469 540 37,000  Level FlightAware ADS-B (EGCW)
Thu 11:57:43 PM 52.7542 -1.2965 92° East 468 539 37,000  Level FlightAware ADS-B
Thu 11:57:46 PM 52.7544 -1.3068 92° East 468 539 37,000  Level FlightAware ADS-B
Thu 11:58:14 PM 52.7519 -1.1920 92° East 467 537 37,000  Level FlightAware ADS-B
Thu 11:58:19 PM 52.7514 -1.1686 92° East 466 536 37,000  Level FlightAware ADS-B (EGDM)
Thu 11:58:44 PM 52.7494 -1.0805 92° East 467 537 37,000  Level FlightAware ADS-B
Thu 11:58:54 PM 52.7486 -1.0471 92° East 468 539 37,000  Level FlightAware ADS-B
Thu 11:59:15 PM 52.7468 -0.9719 92° East 468 539 37,000  Level FlightAware ADS-B
Thu 11:59:25 PM 52.7462 -0.9444 92° East 468 539 37,000  Level FlightAware ADS-B (KALB)
Thu 11:59:45 PM 52.7442 -0.8645 92° East 467 537 37,000  Level FlightAware ADS-B
Thu 11:59:55 PM 52.7433 -0.8273 92° East 466 536 37,000  Level FlightAware ADS-B (EGXY)
Fri 12:00:15 AM 52.7415 -0.7582 92° East 465 535 37,000  Level FlightAware ADS-B
Fri 12:00:27 AM 52.7404 -0.7160 93° East 464 534 37,000  Level FlightAware ADS-B
Fri 12:00:45 AM 52.7387 -0.6504 92° East 464 534 37,000  Level FlightAware ADS-B
Fri 12:01:05 AM 52.7370 -0.5878 92° East 464 534 37,000  Level FlightAware ADS-B
Fri 12:01:15 AM 52.7359 -0.5436 92° East 463 533 37,000  Level FlightAware ADS-B
Fri 12:01:37 AM 52.7338 -0.4690 93° East 464 534 37,000  Level FlightAware ADS-B
Fri 12:01:46 AM 52.7329 -0.4372 93° East 464 534 37,000  Level FlightAware ADS-B
Fri 12:02:10 AM 52.7304 -0.3513 93° East 462 532 37,000  Level FlightAware ADS-B (EGLF / FAB)
Fri 12:02:16 AM 52.7298 -0.3311 93° East 462 532 37,000  Level FlightAware ADS-B
Fri 12:02:40 AM 52.7273 -0.2468 93° East 461 531 37,000  Level FlightAware ADS-B (EGLF / FAB)
Fri 12:02:47 AM 52.7265 -0.2205 93° East 461 531 37,000  Level FlightAware ADS-B
Fri 12:03:10 AM 52.7242 -0.1426 93° East 460 529 37,000  Level FlightAware ADS-B (EGLF / FAB)
Fri 12:03:18 AM 52.7233 -0.1120 93° East 460 529 37,000  Level FlightAware ADS-B
Fri 12:03:20 AM 52.7231 -0.1067 93° East 460 529 37,000  Level FlightAware ADS-B (EGLF / FAB)
Fri 12:03:23 AM 52.7228 -0.0965 92° East 459 528 37,000  Level FlightAware ADS-B (LERS / REU)
Fri 12:03:41 AM 52.7208 -0.0340 92° East 460 529 37,000  Level FlightAware ADS-B
Fri 12:03:49 AM 52.7199 -0.0048 93° East 460 529 37,000  Level FlightAware ADS-B
Fri 12:03:59 AM 52.7187 0.0314 92° East 459 528 37,000  Level FlightAware ADS-B (LERS / REU)
Fri 12:04:05 AM 52.7181 0.0507 92° East 459 528 37,000  Level FlightAware ADS-B
Fri 12:04:11 AM 52.7174 0.0715 92° East 459 528 37,000  Level FlightAware ADS-B (LERS / REU)
Fri 12:04:19 AM 52.7165 0.1012 92° East 459 528 37,000  Level FlightAware ADS-B
Fri 12:04:27 AM 52.7162 0.1253 91° East 460 529 37,000  Level FlightAware ADS-B
Fri 12:04:36 AM 52.7162 0.1579 89° East 460 529 37,000  Level FlightAware ADS-B
Fri 12:04:50 AM 52.7169 0.2035 88° East 461 531 37,000  Level FlightAware ADS-B (EGLF / FAB)
Fri 12:05:06 AM 52.7179 0.2645 88° East 461 531 37,000  Level FlightAware ADS-B
Fri 12:05:15 AM 52.7185 0.2957 89° East 460 529 37,000  Level FlightAware ADS-B (LERS / REU)
Fri 12:05:26 AM 52.7192 0.3353 89° East 460 529 37,000  Level FlightAware ADS-B (LERS / REU)
Fri 12:05:39 AM 52.7200 0.3784 89° East 460 529 37,000  Level FlightAware ADS-B (LERS / REU)
Fri 12:05:51 AM 52.7208 0.4213 89° East 460 529 37,000  Level FlightAware ADS-B (LERS / REU)
Fri 12:05:55 AM 52.7211 0.4356 88° East 460 529 37,000  Level FlightAware ADS-B
Fri 12:06:04 AM 52.7216 0.4683 88° East 460 529 37,000  Level FlightAware ADS-B (KALB)
Fri 12:06:14 AM 52.7221 0.4985 89° East 459 528 37,000  Level FlightAware ADS-B (LERS / REU)
Fri 12:06:29 AM 52.7232 0.5555 89° East 459 528 37,000  Level FlightAware ADS-B
Fri 12:06:44 AM 52.7240 0.6072 88° East 458 527 37,000  Level FlightAware ADS-B (KALB)
Fri 12:07:00 AM 52.7250 0.6628 88° East 458 527 37,000  Level FlightAware ADS-B
Fri 12:07:04 AM 52.7252 0.6734 90° East 458 527 37,000  Level FlightAware ADS-B
Fri 12:07:10 AM 52.7256 0.6973 90° East 458 527 37,000  Level FlightAware ADS-B (LERS / REU)
Fri 12:07:21 AM 52.7262 0.7358 89° East 457 526 37,000 -571 Level FlightAware ADS-B (LERS / REU)
Fri 12:07:31 AM 52.7269 0.7690 88° East 457 526 36,800 -1,385 Descending FlightAware ADS-B
Fri 12:07:34 AM 52.7271 0.7815 89° East 457 526 36,700 -1,636 Descending FlightAware ADS-B (LERS / REU)
Fri 12:07:42 AM 52.7275 0.8091 90° East 458 527 36,500 -1,556 Descending FlightAware ADS-B
Fri 12:08:01 AM 52.7283 0.8743 89° East 458 527 36,000 -1,826 Descending FlightAware ADS-B
Fri 12:08:28 AM 52.7286 0.9689 90° East 463 533 35,100 -1,935 Descending FlightAware ADS-B (EGSR)
Fri 12:08:32 AM 52.7287 0.9849 89° East 462 532 35,000 -1,500 Descending FlightAware ADS-B
Fri 12:08:40 AM 52.7290 1.0117 90° East 460 529 34,800 -1,412 Descending FlightAware ADS-B
Fri 12:08:49 AM 52.7294 1.0443 90° East 459 528 34,600 -1,565 Descending FlightAware ADS-B (LERS / REU)
Fri 12:09:03 AM 52.7299 1.0915 89° East 462 532 34,200 -1,909 Descending FlightAware ADS-B
Fri 12:09:11 AM 52.7301 1.1078 89° East 464 534 33,900 -1,800 Descending FlightAware ADS-B (EGLC / LCY)
Fri 12:09:23 AM 52.7308 1.1625 90° East 460 529 33,600 -1,364 Descending FlightAware ADS-B (LERS / REU)
Fri 12:09:33 AM 52.7311 1.1970 89° East 455 524 33,400 -1,385 Descending FlightAware ADS-B
Fri 12:09:36 AM 52.7311 1.2060 89° East 455 524 33,300 -1,600 Descending FlightAware ADS-B
Fri 12:10:03 AM 52.7319 1.3013 89° East 460 529 32,600 -1,588 Descending FlightAware ADS-B
Fri 12:10:10 AM 52.7322 1.3269 89° East 460 529 32,400 -1,500 Descending FlightAware ADS-B (EGLF / FAB)
Fri 12:10:15 AM 52.7325 1.3412 89° East 459 528 32,300 -2,348 Descending FlightAware ADS-B
Fri 12:10:33 AM 52.7336 1.4069 88° East 458 527 31,500 -2,400 Descending FlightAware ADS-B
Fri 12:10:35 AM 52.7336 1.4108 88° East 457 526 31,500 -1,548 Level FlightAware ADS-B (KALB)
Fri 12:11:04 AM 52.7357 1.5115 88° East 448 516 30,700 -1,600 Descending FlightAware ADS-B
Fri 12:11:05 AM 52.7358 1.5151 88° East 448 516 30,700 -1,500 Level FlightAware ADS-B (EGLC / LCY)
Fri 12:11:20 AM 52.7367 1.5687 90° East 444 511 30,300 -1,333 Descending FlightAware ADS-B (LERS / REU)
Fri 12:11:23 AM 52.7368 1.5772 90° East 444 511 30,300 -1,600 Level FlightAware ADS-B
Fri 12:11:35 AM 52.7374 1.6190 89° East 443 510 29,900 -1,571 Descending FlightAware ADS-B
Fri 12:12:05 AM 52.7388 1.6779 87° East 434 499 29,200 -1,404 Descending FlightAware ADS-B
Fri 12:12:22 AM 52.7421 1.7733 87° East 425 489 28,800 -1,500 Descending FlightAware ADS-B
Fri 12:12:37 AM 52.7438 1.8176 87° East 421 484 28,400 -1,459 Descending FlightAware ADS-B (EGLC / LCY)
Fri 12:12:59 AM 52.7467 1.8913 86° East 411 473 27,900 -1,455 Descending FlightAware ADS-B
Fri 12:13:10 AM 52.7473 1.9205 89° East 406 467 27,600 -1,579 Descending FlightAware ADS-B
Fri 12:13:18 AM 52.7464 1.9469 96° East 397 457 27,400 -1,200 Descending FlightAware ADS-B
Fri 12:13:20 AM 52.7459 1.9544 97° East 397 457 27,400 -1,500 Level FlightAware ADS-B
Fri 12:13:34 AM 52.7417 1.9935 99° East 390 449 27,000 -1,469 Descending FlightAware ADS-B
Fri 12:14:09 AM 52.7311 2.0946 99° East 380 437 26,200 -1,500 Descending FlightAware ADS-B
Fri 12:14:22 AM 52.7271 2.1336 86° East 412 474 25,800 -1,600 Descending FlightAware ADS-B
Fri 12:14:39 AM 52.7226 2.1787 100° East 375 432 25,400 -1,371 Descending FlightAware ADS-B (EGLF / FAB)
Fri 12:14:57 AM 52.7172 2.2309 98° East 373 429 25,000 -1,448 Descending FlightAware ADS-B
Fri 12:15:08 AM 52.7138 2.2641 98° East 371 427 24,700 -1,571 Descending FlightAware ADS-B
Fri 12:15:39 AM 52.7052 2.3482 98° East 370 426 23,900 -1,548 Descending FlightAware UK
Fri 12:15:39 AM 52.7052 2.3466 100° East 371 427 23,900 -1,500 Level FlightAware ADS-B (EGLF / FAB)
Fri 12:15:55 AM 52.7003 2.3924 98° East 366 421 23,500 -1,469 Descending FlightAware ADS-B
Fri 12:16:28 AM 52.6979 2.4152 100° East 371 427 22,700 -1,477 Descending FlightAware ADS-B
Fri 12:17:00 AM 52.6810 2.5752 100° East 365 420 21,900 -1,527 Descending FlightAware ADS-B (EGLF / FAB)
Fri 12:17:23 AM 52.6757 2.6183 111° Southeast 359 413 21,300 -1,309 Descending FlightAware ADS-B (EGLF / FAB)
Fri 12:17:55 AM 52.6525 2.7147 113° Southeast 355 409 20,700 -1,031 Descending FlightAware ADS-B (KALB)
Fri 12:18:27 AM 52.6329 2.7957 112° Southeast 355 409 20,200 -1,059 Descending FlightAware ADS-B (KALB)
Fri 12:19:03 AM 52.6108 2.8874 112° Southeast 352 405 19,500 -1,000 Descending FlightAware UK
Fri 12:19:03 AM 52.6113 2.8847 112° Southeast 352 405 19,600 -1,600 Climbing FlightAware ADS-B (KALB)
Fri 12:19:33 AM 52.5925 2.9619 112° Southeast 354 407 18,700 -1,688 Descending FlightAware UK
Fri 12:19:35 AM 52.5914 2.9661 112° Southeast 354 407 18,700 -1,765 Level FlightAware ADS-B (KALB)
Fri 12:20:07 AM 52.5717 3.0460 112° Southeast 356 410 17,700 -2,060 Descending FlightAware ADS-B (LRBS / BBU)
Fri 12:20:42 AM 52.5504 3.1322 112° Southeast 352 405 16,400 -2,028 Descending FlightAware ADS-B (LRBS / BBU)
Fri 12:21:18 AM 52.5289 3.2192 112° Southeast 354 407 15,300 -1,870 Descending FlightAware ADS-B
Fri 12:21:59 AM 52.5027 3.3243 112° Southeast 350 403 14,000 -2,000 Descending FlightAware ADS-B
Fri 12:22:33 AM 52.4817 3.4103 112° Southeast 348 400 12,800 -2,229 Descending FlightAware UK
Fri 12:22:34 AM 52.4810 3.4113 112° Southeast 345 397 12,700 -1,833 Descending FlightAware ADS-B
Fri 12:23:09 AM 52.4606 3.4955 112° Southeast 340 391 11,700 -1,784 Descending FlightAware UK
Fri 12:23:11 AM 52.4633 3.4817 112° Southeast 336 387 11,600 -1,833 Descending FlightAware ADS-B
Fri 12:23:45 AM 52.4390 3.5786 112° Southeast 321 369 10,600 -1,219 Descending FlightAware ADS-B (LRBS / BBU)
Fri 12:24:15 AM 52.4232 3.6428 112° Southeast 278 320 10,300 -333 Descending FlightAware UK
Fri 12:24:21 AM 52.4206 3.6521 113° Southeast 264 304 10,400 -333 Climbing FlightAware ADS-B
Fri 12:24:51 AM 52.4070 3.7059 113° Southeast 246 283 10,100 -514 Descending FlightAware UK
Fri 12:24:56 AM 52.4050 3.7138 111° Southeast 240 276 10,100  Level FlightAware ADS-B
Fri 12:25:08 AM 52.4000 3.7331 111° Southeast 240 276 10,100 -387 Level FlightAware ADS-B
Fri 12:25:27 AM 52.3924 3.7630 113° Southeast 231 266 9,900 -947 Descending FlightAware ADS-B (LRBS / BBU)
Fri 12:25:46 AM 52.3843 3.7946 113° Southeast 232 267 9,500 -1,364 Descending FlightAware ADS-B (LRBS / BBU)
Fri 12:25:49 AM 52.3832 3.7988 111° Southeast 229 264 9,400 -1,846 Descending FlightAware ADS-B
Fri 12:25:59 AM 52.3790 3.8152 111° Southeast 233 268 9,100 -2,000 Descending FlightAware ADS-B
Fri 12:26:19 AM 52.3703 3.8492 113° Southeast 248 285 8,400 -1,846 Descending FlightAware ADS-B
Fri 12:26:38 AM 52.3619 3.8822 113° Southeast 253 291 7,900 -1,385 Descending FlightAware ADS-B
Fri 12:26:58 AM 52.3527 3.9180 113° Southeast 253 291 7,500 -1,421 Descending FlightAware ADS-B
Fri 12:27:16 AM 52.3447 3.9492 113° Southeast 254 292 7,000 -1,125 Descending FlightAware ADS-B
Fri 12:27:46 AM 52.3308 4.0032 113° Southeast 246 283 6,600 -600 Descending FlightAware UK
Fri 12:27:46 AM 52.3315 4.0009 113° Southeast 242 278 6,700 -286 Climbing FlightAware ADS-B (LRBS / BBU)
Fri 12:28:07 AM 52.3230 4.0337 113° Southeast 234 269 6,500 -462 Descending FlightAware ADS-B (LRBS / BBU)
Fri 12:28:25 AM 52.3148 4.0656 113° Southeast 224 258 6,400 -600 Descending FlightAware ADS-B (LRBS / BBU)
Fri 12:28:47 AM 52.3064 4.0984 113° Southeast 234 269 6,100 -857 Descending FlightAware ADS-B (LRBS / BBU)
Fri 12:29:07 AM 52.2972 4.1338 113° Southeast 253 291 5,800 -1,200 Descending FlightAware ADS-B (LRBS / BBU)
Fri 12:29:27 AM 52.2887 4.1668 113° Southeast 253 291 5,300 -1,385 Descending FlightAware ADS-B (LRBS / BBU)
Fri 12:29:46 AM 52.2790 4.2041 113° Southeast 253 291 4,900 -1,077 Descending FlightAware ADS-B (LRBS / BBU)
Fri 12:30:06 AM 52.2710 4.2351 113° Southeast 251 289 4,600 -750 Descending FlightAware ADS-B (LRBS / BBU)
Fri 12:30:26 AM 52.2617 4.2706 113° Southeast 241 277 4,400 -450 Descending FlightAware ADS-B (LRBS / BBU)
Fri 12:30:46 AM 52.2530 4.3044 113° Southeast 231 266 4,300 -450 Descending FlightAware ADS-B (LRBS / BBU)
Fri 12:31:06 AM 52.2448 4.3359 113° Southeast 221 254 4,100 -585 Descending FlightAware ADS-B (LRBS / BBU)
Fri 12:31:27 AM 52.2365 4.3676 113° Southeast 216 249 3,900 -750 Descending FlightAware ADS-B (LRBS / BBU)
Fri 12:31:46 AM 52.2302 4.3913 115° Southeast 218 251 3,600 -1,077 Descending FlightAware ADS-B (LRBS / BBU)
Fri 12:32:06 AM 52.2199 4.4269 116° Southeast 219 252 3,200 -900 Descending FlightAware ADS-B (LRBS / BBU)
Fri 12:32:26 AM 52.2128 4.4506 112° Southeast 215 247 3,000 -667 Descending FlightAware ADS-B (LRBS / BBU)
Fri 12:32:33 AM 52.2098 4.4657 101° East 217 250 2,900 -1,200 Descending FlightAware ADS-B
Fri 12:32:36 AM 52.2093 4.4721 112° Southeast 215 247 2,800 -333 Descending FlightAware ADS-B (LRBS / BBU)
Fri 12:32:51 AM 52.2083 4.4933 93° East 218 251 2,800  Level FlightAware ADS-B
Fri 12:33:01 AM 52.2093 4.4721 112° Southeast 215 247 2,800  Level FlightAware ADS-B (LRBS / BBU)
Fri 12:33:10 AM 52.2089 4.5254 69° East 205 236 2,800 -273 Level FlightAware ADS-B
Fri 12:33:23 AM 52.2131 4.5403 60° Northeast 201 231 2,700 -750 Descending FlightAware ADS-B
Fri 12:33:34 AM 52.2199 4.5584 57° Northeast 201 231 2,500 -1,250 Descending FlightAware ADS-B
Fri 12:33:47 AM 52.2263 4.5743 58° Northeast 196 226 2,200 -960 Descending FlightAware ADS-B
Fri 12:34:24 AM 52.2395 4.6087 58° Northeast 178 205 1,700 -828 Descending FlightAware ADS-B
Fri 12:35:43 AM 52.2722 4.6934 58° Northeast 129 148 600 -835 Descending FlightAware ADS-B

Login

Don't have an account? Register now (free) for customized features, flight alerts, and more!